sensor_id;sensor_type;location;lat;lon;timestamp;P1;durP1;ratioP1;P2;durP2;ratioP2
22318;SDS011;11327;52.334;9.506;2023-12-28T00:00:56;3.58;;;1.77;;
22318;SDS011;11327;52.334;9.506;2023-12-28T00:04:18;3.52;;;2.00;;
22318;SDS011;11327;52.334;9.506;2023-12-28T00:07:38;3.30;;;2.00;;
22318;SDS011;11327;52.334;9.506;2023-12-28T00:10:59;2.58;;;1.77;;
22318;SDS011;11327;52.334;9.506;2023-12-28T00:14:20;3.05;;;1.60;;
22318;SDS011;11327;52.334;9.506;2023-12-28T00:17:41;4.28;;;1.70;;
22318;SDS011;11327;52.334;9.506;2023-12-28T00:21:02;3.05;;;1.90;;
22318;SDS011;11327;52.334;9.506;2023-12-28T00:24:22;3.22;;;1.90;;
22318;SDS011;11327;52.334;9.506;2023-12-28T00:27:43;4.78;;;1.90;;
22318;SDS011;11327;52.334;9.506;2023-12-28T00:31:05;5.83;;;2.10;;
22318;SDS011;11327;52.334;9.506;2023-12-28T00:34:26;3.85;;;1.77;;
22318;SDS011;11327;52.334;9.506;2023-12-28T00:37:48;4.78;;;1.92;;
22318;SDS011;11327;52.334;9.506;2023-12-28T00:41:08;4.08;;;1.92;;
22318;SDS011;11327;52.334;9.506;2023-12-28T00:44:29;3.67;;;2.00;;
22318;SDS011;11327;52.334;9.506;2023-12-28T00:47:50;4.75;;;2.10;;
22318;SDS011;11327;52.334;9.506;2023-12-28T00:51:12;3.55;;;1.77;;
22318;SDS011;11327;52.334;9.506;2023-12-28T00:54:34;3.60;;;1.80;;
22318;SDS011;11327;52.334;9.506;2023-12-28T00:57:57;3.35;;;1.75;;
22318;SDS011;11327;52.334;9.506;2023-12-28T01:01:18;3.35;;;1.70;;
22318;SDS011;11327;52.334;9.506;2023-12-28T01:04:38;3.80;;;1.85;;
22318;SDS011;11327;52.334;9.506;2023-12-28T01:07:59;3.92;;;1.92;;
22318;SDS011;11327;52.334;9.506;2023-12-28T01:11:20;4.17;;;1.95;;
22318;SDS011;11327;52.334;9.506;2023-12-28T01:14:41;8.63;;;2.45;;
22318;SDS011;11327;52.334;9.506;2023-12-28T01:18:02;3.08;;;1.70;;
22318;SDS011;11327;52.334;9.506;2023-12-28T01:21:22;4.78;;;1.95;;
22318;SDS011;11327;52.334;9.506;2023-12-28T01:24:47;3.42;;;1.70;;
22318;SDS011;11327;52.334;9.506;2023-12-28T01:28:09;3.62;;;2.00;;
22318;SDS011;11327;52.334;9.506;2023-12-28T01:31:30;4.03;;;1.77;;
22318;SDS011;11327;52.334;9.506;2023-12-28T01:34:51;3.47;;;1.87;;
22318;SDS011;11327;52.334;9.506;2023-12-28T01:38:12;4.12;;;1.80;;
22318;SDS011;11327;52.334;9.506;2023-12-28T01:41:32;3.70;;;2.00;;
22318;SDS011;11327;52.334;9.506;2023-12-28T01:44:53;2.80;;;1.87;;
22318;SDS011;11327;52.334;9.506;2023-12-28T01:48:14;4.30;;;1.92;;
22318;SDS011;11327;52.334;9.506;2023-12-28T01:51:35;3.45;;;2.00;;
22318;SDS011;11327;52.334;9.506;2023-12-28T01:54:56;4.97;;;2.10;;
22318;SDS011;11327;52.334;9.506;2023-12-28T01:58:17;3.60;;;2.15;;
22318;SDS011;11327;52.334;9.506;2023-12-28T02:01:38;4.25;;;1.98;;
22318;SDS011;11327;52.334;9.506;2023-12-28T02:04:59;2.83;;;2.00;;
22318;SDS011;11327;52.334;9.506;2023-12-28T02:08:21;3.42;;;1.82;;
22318;SDS011;11327;52.334;9.506;2023-12-28T02:11:42;3.65;;;2.50;;
22318;SDS011;11327;52.334;9.506;2023-12-28T02:15:02;3.47;;;2.33;;
22318;SDS011;11327;52.334;9.506;2023-12-28T02:18:26;3.70;;;2.52;;
22318;SDS011;11327;52.334;9.506;2023-12-28T02:21:48;3.17;;;2.33;;
22318;SDS011;11327;52.334;9.506;2023-12-28T02:25:10;4.22;;;2.17;;
22318;SDS011;11327;52.334;9.506;2023-12-28T02:28:34;3.52;;;2.27;;
22318;SDS011;11327;52.334;9.506;2023-12-28T02:31:58;5.08;;;2.60;;
22318;SDS011;11327;52.334;9.506;2023-12-28T02:35:24;4.95;;;2.58;;
22318;SDS011;11327;52.334;9.506;2023-12-28T02:38:50;3.33;;;2.40;;
22318;SDS011;11327;52.334;9.506;2023-12-28T02:42:12;4.28;;;2.40;;
22318;SDS011;11327;52.334;9.506;2023-12-28T02:45:33;4.67;;;2.60;;
22318;SDS011;11327;52.334;9.506;2023-12-28T02:48:54;5.87;;;2.67;;
22318;SDS011;11327;52.334;9.506;2023-12-28T02:52:17;3.65;;;2.58;;
22318;SDS011;11327;52.334;9.506;2023-12-28T02:55:38;7.00;;;3.17;;
22318;SDS011;11327;52.334;9.506;2023-12-28T02:58:59;3.02;;;2.40;;
22318;SDS011;11327;52.334;9.506;2023-12-28T03:02:20;4.35;;;2.62;;
22318;SDS011;11327;52.334;9.506;2023-12-28T03:05:41;3.27;;;2.52;;
22318;SDS011;11327;52.334;9.506;2023-12-28T03:09:01;3.25;;;2.25;;
22318;SDS011;11327;52.334;9.506;2023-12-28T03:12:22;3.98;;;2.30;;
22318;SDS011;11327;52.334;9.506;2023-12-28T03:15:43;4.03;;;2.47;;
22318;SDS011;11327;52.334;9.506;2023-12-28T03:19:04;4.12;;;2.60;;
22318;SDS011;11327;52.334;9.506;2023-12-28T03:22:25;5.08;;;2.50;;
22318;SDS011;11327;52.334;9.506;2023-12-28T03:25:45;4.42;;;2.52;;
22318;SDS011;11327;52.334;9.506;2023-12-28T03:29:07;5.17;;;2.65;;
22318;SDS011;11327;52.334;9.506;2023-12-28T03:32:28;5.58;;;2.77;;
22318;SDS011;11327;52.334;9.506;2023-12-28T03:35:49;3.60;;;2.37;;
22318;SDS011;11327;52.334;9.506;2023-12-28T03:39:11;3.40;;;2.45;;
22318;SDS011;11327;52.334;9.506;2023-12-28T03:42:32;5.37;;;2.20;;
22318;SDS011;11327;52.334;9.506;2023-12-28T03:45:52;3.77;;;2.25;;
22318;SDS011;11327;52.334;9.506;2023-12-28T03:49:15;3.05;;;1.90;;
22318;SDS011;11327;52.334;9.506;2023-12-28T03:52:39;4.08;;;2.42;;
22318;SDS011;11327;52.334;9.506;2023-12-28T03:55:59;3.85;;;2.50;;
22318;SDS011;11327;52.334;9.506;2023-12-28T03:59:20;4.03;;;2.37;;
22318;SDS011;11327;52.334;9.506;2023-12-28T04:02:41;3.47;;;2.40;;
22318;SDS011;11327;52.334;9.506;2023-12-28T04:06:02;4.33;;;2.27;;
22318;SDS011;11327;52.334;9.506;2023-12-28T04:09:23;4.67;;;2.40;;
22318;SDS011;11327;52.334;9.506;2023-12-28T04:12:43;2.80;;;2.30;;
22318;SDS011;11327;52.334;9.506;2023-12-28T04:16:04;5.10;;;2.72;;
22318;SDS011;11327;52.334;9.506;2023-12-28T04:19:26;4.70;;;2.62;;
22318;SDS011;11327;52.334;9.506;2023-12-28T04:22:46;4.40;;;2.60;;
22318;SDS011;11327;52.334;9.506;2023-12-28T04:26:07;3.90;;;2.37;;
22318;SDS011;11327;52.334;9.506;2023-12-28T04:29:28;3.87;;;2.50;;
22318;SDS011;11327;52.334;9.506;2023-12-28T04:32:49;3.55;;;2.47;;
22318;SDS011;11327;52.334;9.506;2023-12-28T04:36:10;5.47;;;2.60;;
22318;SDS011;11327;52.334;9.506;2023-12-28T04:39:31;3.80;;;2.45;;
22318;SDS011;11327;52.334;9.506;2023-12-28T04:42:52;3.20;;;2.42;;
22318;SDS011;11327;52.334;9.506;2023-12-28T04:46:12;4.25;;;2.42;;
22318;SDS011;11327;52.334;9.506;2023-12-28T04:49:33;4.10;;;2.62;;
22318;SDS011;11327;52.334;9.506;2023-12-28T04:52:54;4.95;;;2.50;;
22318;SDS011;11327;52.334;9.506;2023-12-28T04:56:18;3.90;;;2.10;;
22318;SDS011;11327;52.334;9.506;2023-12-28T04:59:40;4.80;;;2.40;;
22318;SDS011;11327;52.334;9.506;2023-12-28T05:03:01;4.60;;;2.40;;
22318;SDS011;11327;52.334;9.506;2023-12-28T05:06:22;6.30;;;2.50;;
22318;SDS011;11327;52.334;9.506;2023-12-28T05:09:43;4.37;;;2.37;;
22318;SDS011;11327;52.334;9.506;2023-12-28T05:13:04;4.28;;;1.95;;
22318;SDS011;11327;52.334;9.506;2023-12-28T05:16:25;5.10;;;2.37;;
22318;SDS011;11327;52.334;9.506;2023-12-28T05:19:46;2.85;;;1.95;;
22318;SDS011;11327;52.334;9.506;2023-12-28T05:23:07;3.45;;;1.82;;
22318;SDS011;11327;52.334;9.506;2023-12-28T05:26:28;4.28;;;2.30;;
22318;SDS011;11327;52.334;9.506;2023-12-28T05:29:48;3.35;;;2.15;;
22318;SDS011;11327;52.334;9.506;2023-12-28T05:33:09;5.55;;;2.20;;
22318;SDS011;11327;52.334;9.506;2023-12-28T05:36:30;4.15;;;1.92;;
22318;SDS011;11327;52.334;9.506;2023-12-28T05:39:51;5.80;;;2.08;;
22318;SDS011;11327;52.334;9.506;2023-12-28T05:43:12;5.08;;;2.20;;
22318;SDS011;11327;52.334;9.506;2023-12-28T05:46:32;4.28;;;2.12;;
22318;SDS011;11327;52.334;9.506;2023-12-28T05:49:53;4.55;;;2.10;;
22318;SDS011;11327;52.334;9.506;2023-12-28T05:53:14;4.05;;;1.90;;
22318;SDS011;11327;52.334;9.506;2023-12-28T05:56:35;3.92;;;1.80;;
22318;SDS011;11327;52.334;9.506;2023-12-28T05:59:55;4.65;;;1.90;;
22318;SDS011;11327;52.334;9.506;2023-12-28T06:03:16;4.00;;;2.10;;
22318;SDS011;11327;52.334;9.506;2023-12-28T06:06:37;3.30;;;1.90;;
22318;SDS011;11327;52.334;9.506;2023-12-28T06:09:58;5.25;;;1.75;;
22318;SDS011;11327;52.334;9.506;2023-12-28T06:13:19;2.98;;;1.77;;
22318;SDS011;11327;52.334;9.506;2023-12-28T06:16:39;3.70;;;1.90;;
22318;SDS011;11327;52.334;9.506;2023-12-28T06:20:00;3.05;;;1.87;;
22318;SDS011;11327;52.334;9.506;2023-12-28T06:23:21;4.10;;;1.92;;
22318;SDS011;11327;52.334;9.506;2023-12-28T06:26:42;4.55;;;2.00;;
22318;SDS011;11327;52.334;9.506;2023-12-28T06:30:04;4.20;;;1.85;;
22318;SDS011;11327;52.334;9.506;2023-12-28T06:33:26;3.42;;;1.80;;
22318;SDS011;11327;52.334;9.506;2023-12-28T06:36:48;4.50;;;1.62;;
22318;SDS011;11327;52.334;9.506;2023-12-28T06:40:09;3.85;;;1.95;;
22318;SDS011;11327;52.334;9.506;2023-12-28T06:43:30;4.53;;;1.60;;
22318;SDS011;11327;52.334;9.506;2023-12-28T06:46:51;3.42;;;1.55;;
22318;SDS011;11327;52.334;9.506;2023-12-28T06:50:12;2.77;;;1.70;;
22318;SDS011;11327;52.334;9.506;2023-12-28T06:53:32;5.03;;;1.95;;
22318;SDS011;11327;52.334;9.506;2023-12-28T06:56:53;4.05;;;1.90;;
22318;SDS011;11327;52.334;9.506;2023-12-28T07:00:14;4.45;;;2.00;;
22318;SDS011;11327;52.334;9.506;2023-12-28T07:03:35;2.80;;;1.52;;
22318;SDS011;11327;52.334;9.506;2023-12-28T07:06:55;2.50;;;1.60;;
22318;SDS011;11327;52.334;9.506;2023-12-28T07:10:16;4.95;;;1.67;;
22318;SDS011;11327;52.334;9.506;2023-12-28T07:13:37;4.47;;;1.70;;
22318;SDS011;11327;52.334;9.506;2023-12-28T07:16:58;3.55;;;1.82;;
22318;SDS011;11327;52.334;9.506;2023-12-28T07:20:19;4.78;;;1.80;;
22318;SDS011;11327;52.334;9.506;2023-12-28T07:23:39;3.75;;;1.50;;
22318;SDS011;11327;52.334;9.506;2023-12-28T07:27:00;3.45;;;1.40;;
22318;SDS011;11327;52.334;9.506;2023-12-28T07:30:21;2.98;;;1.80;;
22318;SDS011;11327;52.334;9.506;2023-12-28T07:33:41;3.08;;;1.70;;
22318;SDS011;11327;52.334;9.506;2023-12-28T07:37:02;5.30;;;1.75;;
22318;SDS011;11327;52.334;9.506;2023-12-28T07:40:23;5.28;;;1.90;;
22318;SDS011;11327;52.334;9.506;2023-12-28T07:43:44;4.28;;;1.57;;
22318;SDS011;11327;52.334;9.506;2023-12-28T07:47:05;4.95;;;1.98;;
22318;SDS011;11327;52.334;9.506;2023-12-28T07:50:25;5.30;;;1.70;;
22318;SDS011;11327;52.334;9.506;2023-12-28T07:53:46;3.20;;;1.40;;
22318;SDS011;11327;52.334;9.506;2023-12-28T07:57:07;4.15;;;1.62;;
22318;SDS011;11327;52.334;9.506;2023-12-28T08:00:27;3.25;;;1.60;;
22318;SDS011;11327;52.334;9.506;2023-12-28T08:03:48;2.58;;;1.45;;
22318;SDS011;11327;52.334;9.506;2023-12-28T08:07:09;3.83;;;1.30;;
22318;SDS011;11327;52.334;9.506;2023-12-28T08:10:29;2.30;;;1.40;;
22318;SDS011;11327;52.334;9.506;2023-12-28T08:13:50;4.37;;;1.47;;
22318;SDS011;11327;52.334;9.506;2023-12-28T08:17:11;4.17;;;1.40;;
22318;SDS011;11327;52.334;9.506;2023-12-28T08:20:31;3.55;;;1.62;;
22318;SDS011;11327;52.334;9.506;2023-12-28T08:23:52;3.85;;;1.52;;
22318;SDS011;11327;52.334;9.506;2023-12-28T08:30:53;3.05;;;1.30;;
22318;SDS011;11327;52.334;9.506;2023-12-28T08:34:16;4.53;;;1.60;;
22318;SDS011;11327;52.334;9.506;2023-12-28T08:37:37;4.35;;;1.85;;
22318;SDS011;11327;52.334;9.506;2023-12-28T08:40:57;3.37;;;1.62;;
22318;SDS011;11327;52.334;9.506;2023-12-28T08:44:18;3.72;;;1.52;;
22318;SDS011;11327;52.334;9.506;2023-12-28T08:47:39;6.80;;;2.05;;
22318;SDS011;11327;52.334;9.506;2023-12-28T08:50:59;5.10;;;1.80;;
22318;SDS011;11327;52.334;9.506;2023-12-28T08:54:20;3.77;;;1.75;;
22318;SDS011;11327;52.334;9.506;2023-12-28T08:57:41;3.62;;;1.77;;
22318;SDS011;11327;52.334;9.506;2023-12-28T09:01:02;7.90;;;2.00;;
22318;SDS011;11327;52.334;9.506;2023-12-28T09:04:22;4.53;;;2.00;;
22318;SDS011;11327;52.334;9.506;2023-12-28T09:07:43;4.53;;;1.77;;
22318;SDS011;11327;52.334;9.506;2023-12-28T09:11:04;5.15;;;1.70;;
22318;SDS011;11327;52.334;9.506;2023-12-28T09:14:25;3.50;;;1.40;;
22318;SDS011;11327;52.334;9.506;2023-12-28T09:17:45;6.05;;;1.70;;
22318;SDS011;11327;52.334;9.506;2023-12-28T09:21:07;4.03;;;1.67;;
22318;SDS011;11327;52.334;9.506;2023-12-28T09:24:28;4.37;;;1.57;;
22318;SDS011;11327;52.334;9.506;2023-12-28T09:27:49;5.97;;;1.85;;
22318;SDS011;11327;52.334;9.506;2023-12-28T09:31:10;7.42;;;1.98;;
22318;SDS011;11327;52.334;9.506;2023-12-28T09:34:31;4.78;;;1.67;;
22318;SDS011;11327;52.334;9.506;2023-12-28T09:37:52;5.55;;;1.80;;
22318;SDS011;11327;52.334;9.506;2023-12-28T09:41:13;5.97;;;1.80;;
22318;SDS011;11327;52.334;9.506;2023-12-28T09:44:36;4.92;;;1.75;;
22318;SDS011;11327;52.334;9.506;2023-12-28T09:47:59;7.00;;;2.08;;
22318;SDS011;11327;52.334;9.506;2023-12-28T09:51:20;4.70;;;1.80;;
22318;SDS011;11327;52.334;9.506;2023-12-28T09:54:40;3.12;;;1.67;;
22318;SDS011;11327;52.334;9.506;2023-12-28T09:58:01;4.55;;;1.67;;
22318;SDS011;11327;52.334;9.506;2023-12-28T10:01:25;4.22;;;1.67;;
22318;SDS011;11327;52.334;9.506;2023-12-28T10:04:46;5.25;;;1.62;;
22318;SDS011;11327;52.334;9.506;2023-12-28T10:08:07;5.17;;;2.15;;
22318;SDS011;11327;52.334;9.506;2023-12-28T10:11:28;4.75;;;1.60;;
22318;SDS011;11327;52.334;9.506;2023-12-28T10:14:50;6.58;;;1.82;;
22318;SDS011;11327;52.334;9.506;2023-12-28T10:18:11;5.05;;;1.60;;
22318;SDS011;11327;52.334;9.506;2023-12-28T10:21:32;6.08;;;1.77;;
22318;SDS011;11327;52.334;9.506;2023-12-28T10:24:53;6.15;;;2.10;;
22318;SDS011;11327;52.334;9.506;2023-12-28T10:28:13;4.67;;;1.47;;
22318;SDS011;11327;52.334;9.506;2023-12-28T10:31:41;8.68;;;1.60;;
22318;SDS011;11327;52.334;9.506;2023-12-28T10:35:04;9.48;;;1.72;;
22318;SDS011;11327;52.334;9.506;2023-12-28T10:38:25;7.25;;;1.77;;
22318;SDS011;11327;52.334;9.506;2023-12-28T10:41:49;7.72;;;1.87;;
22318;SDS011;11327;52.334;9.506;2023-12-28T10:45:10;7.15;;;1.80;;
22318;SDS011;11327;52.334;9.506;2023-12-28T10:48:32;5.65;;;1.62;;
22318;SDS011;11327;52.334;9.506;2023-12-28T10:51:55;9.43;;;1.92;;
22318;SDS011;11327;52.334;9.506;2023-12-28T10:55:33;7.95;;;1.77;;
22318;SDS011;11327;52.334;9.506;2023-12-28T10:58:55;8.68;;;2.50;;
22318;SDS011;11327;52.334;9.506;2023-12-28T11:02:24;9.48;;;2.00;;
22318;SDS011;11327;52.334;9.506;2023-12-28T11:05:48;6.00;;;1.60;;
22318;SDS011;11327;52.334;9.506;2023-12-28T11:09:09;6.20;;;1.70;;
22318;SDS011;11327;52.334;9.506;2023-12-28T11:12:30;5.80;;;1.80;;
22318;SDS011;11327;52.334;9.506;2023-12-28T11:15:52;6.40;;;2.42;;
22318;SDS011;11327;52.334;9.506;2023-12-28T11:19:15;5.97;;;1.82;;
22318;SDS011;11327;52.334;9.506;2023-12-28T11:22:37;8.55;;;2.22;;
22318;SDS011;11327;52.334;9.506;2023-12-28T11:25:59;6.42;;;1.60;;
22318;SDS011;11327;52.334;9.506;2023-12-28T11:29:20;5.87;;;1.70;;
22318;SDS011;11327;52.334;9.506;2023-12-28T11:32:42;9.03;;;2.33;;
22318;SDS011;11327;52.334;9.506;2023-12-28T11:36:07;5.97;;;2.00;;
22318;SDS011;11327;52.334;9.506;2023-12-28T11:39:38;8.50;;;2.10;;
22318;SDS011;11327;52.334;9.506;2023-12-28T11:43:00;8.33;;;1.92;;
22318;SDS011;11327;52.334;9.506;2023-12-28T11:46:21;8.95;;;1.90;;
22318;SDS011;11327;52.334;9.506;2023-12-28T11:49:42;4.60;;;1.62;;
22318;SDS011;11327;52.334;9.506;2023-12-28T11:53:07;8.40;;;1.70;;
22318;SDS011;11327;52.334;9.506;2023-12-28T11:56:28;8.60;;;1.80;;
22318;SDS011;11327;52.334;9.506;2023-12-28T11:59:55;11.03;;;2.90;;
22318;SDS011;11327;52.334;9.506;2023-12-28T12:03:17;10.23;;;2.10;;
22318;SDS011;11327;52.334;9.506;2023-12-28T12:06:39;7.47;;;1.85;;
22318;SDS011;11327;52.334;9.506;2023-12-28T12:10:00;10.82;;;2.08;;
22318;SDS011;11327;52.334;9.506;2023-12-28T12:13:21;6.92;;;2.10;;
22318;SDS011;11327;52.334;9.506;2023-12-28T12:16:42;5.62;;;1.52;;
22318;SDS011;11327;52.334;9.506;2023-12-28T12:20:03;7.50;;;1.90;;
22318;SDS011;11327;52.334;9.506;2023-12-28T12:23:24;5.60;;;1.57;;
22318;SDS011;11327;52.334;9.506;2023-12-28T12:26:45;9.00;;;2.00;;
22318;SDS011;11327;52.334;9.506;2023-12-28T12:30:07;10.82;;;1.70;;
22318;SDS011;11327;52.334;9.506;2023-12-28T12:33:28;9.30;;;2.02;;
22318;SDS011;11327;52.334;9.506;2023-12-28T12:36:49;10.85;;;2.15;;
22318;SDS011;11327;52.334;9.506;2023-12-28T12:40:12;5.62;;;1.70;;
22318;SDS011;11327;52.334;9.506;2023-12-28T12:43:33;9.05;;;2.00;;
22318;SDS011;11327;52.334;9.506;2023-12-28T12:46:57;7.53;;;1.70;;
22318;SDS011;11327;52.334;9.506;2023-12-28T12:50:22;4.30;;;1.55;;
22318;SDS011;11327;52.334;9.506;2023-12-28T12:53:42;6.78;;;1.70;;
22318;SDS011;11327;52.334;9.506;2023-12-28T12:57:03;8.30;;;1.80;;
22318;SDS011;11327;52.334;9.506;2023-12-28T13:00:25;7.03;;;1.72;;
22318;SDS011;11327;52.334;9.506;2023-12-28T13:03:46;6.67;;;1.90;;
22318;SDS011;11327;52.334;9.506;2023-12-28T13:07:07;6.80;;;1.80;;
22318;SDS011;11327;52.334;9.506;2023-12-28T13:10:27;7.83;;;2.33;;
22318;SDS011;11327;52.334;9.506;2023-12-28T13:13:48;7.97;;;2.10;;
22318;SDS011;11327;52.334;9.506;2023-12-28T13:17:09;9.88;;;2.20;;
22318;SDS011;11327;52.334;9.506;2023-12-28T13:20:29;11.28;;;2.15;;
22318;SDS011;11327;52.334;9.506;2023-12-28T13:23:50;9.33;;;2.70;;
22318;SDS011;11327;52.334;9.506;2023-12-28T13:27:11;6.72;;;1.98;;
22318;SDS011;11327;52.334;9.506;2023-12-28T13:30:32;6.20;;;1.75;;
22318;SDS011;11327;52.334;9.506;2023-12-28T13:33:52;6.37;;;2.35;;
22318;SDS011;11327;52.334;9.506;2023-12-28T13:37:13;6.85;;;1.77;;
22318;SDS011;11327;52.334;9.506;2023-12-28T13:40:34;8.93;;;2.00;;
22318;SDS011;11327;52.334;9.506;2023-12-28T13:43:55;6.33;;;1.90;;
22318;SDS011;11327;52.334;9.506;2023-12-28T13:47:17;7.65;;;2.15;;
22318;SDS011;11327;52.334;9.506;2023-12-28T13:50:38;10.10;;;2.00;;
22318;SDS011;11327;52.334;9.506;2023-12-28T13:53:59;5.35;;;1.62;;
22318;SDS011;11327;52.334;9.506;2023-12-28T13:57:19;6.78;;;1.40;;
22318;SDS011;11327;52.334;9.506;2023-12-28T14:00:40;8.58;;;1.95;;
22318;SDS011;11327;52.334;9.506;2023-12-28T14:04:01;7.00;;;1.80;;
22318;SDS011;11327;52.334;9.506;2023-12-28T14:07:23;7.65;;;2.05;;
22318;SDS011;11327;52.334;9.506;2023-12-28T14:10:44;6.20;;;1.50;;
22318;SDS011;11327;52.334;9.506;2023-12-28T14:14:05;6.62;;;1.87;;
22318;SDS011;11327;52.334;9.506;2023-12-28T14:17:26;7.28;;;1.67;;
22318;SDS011;11327;52.334;9.506;2023-12-28T14:20:47;5.47;;;1.87;;
22318;SDS011;11327;52.334;9.506;2023-12-28T14:24:08;5.58;;;1.62;;
22318;SDS011;11327;52.334;9.506;2023-12-28T14:27:29;6.50;;;1.70;;
22318;SDS011;11327;52.334;9.506;2023-12-28T14:30:51;4.72;;;1.40;;
22318;SDS011;11327;52.334;9.506;2023-12-28T14:34:12;7.33;;;1.80;;
22318;SDS011;11327;52.334;9.506;2023-12-28T14:37:33;5.00;;;1.52;;
22318;SDS011;11327;52.334;9.506;2023-12-28T14:40:54;5.17;;;1.30;;
22318;SDS011;11327;52.334;9.506;2023-12-28T14:44:16;6.00;;;1.47;;
22318;SDS011;11327;52.334;9.506;2023-12-28T14:47:37;6.65;;;1.55;;
22318;SDS011;11327;52.334;9.506;2023-12-28T14:50:58;7.30;;;1.62;;
22318;SDS011;11327;52.334;9.506;2023-12-28T14:54:18;5.78;;;1.50;;
22318;SDS011;11327;52.334;9.506;2023-12-28T14:57:39;6.83;;;1.55;;
22318;SDS011;11327;52.334;9.506;2023-12-28T15:01:00;5.03;;;1.40;;
22318;SDS011;11327;52.334;9.506;2023-12-28T15:04:21;5.50;;;1.27;;
22318;SDS011;11327;52.334;9.506;2023-12-28T15:07:41;6.65;;;1.45;;
22318;SDS011;11327;52.334;9.506;2023-12-28T15:11:02;7.75;;;1.75;;
22318;SDS011;11327;52.334;9.506;2023-12-28T15:14:24;4.58;;;1.50;;
22318;SDS011;11327;52.334;9.506;2023-12-28T15:17:45;6.08;;;1.50;;
22318;SDS011;11327;52.334;9.506;2023-12-28T15:21:07;10.45;;;1.67;;
22318;SDS011;11327;52.334;9.506;2023-12-28T15:24:28;6.92;;;1.80;;
22318;SDS011;11327;52.334;9.506;2023-12-28T15:27:49;6.72;;;1.62;;
22318;SDS011;11327;52.334;9.506;2023-12-28T15:31:10;6.72;;;2.25;;
22318;SDS011;11327;52.334;9.506;2023-12-28T15:34:31;8.00;;;1.77;;
22318;SDS011;11327;52.334;9.506;2023-12-28T15:37:51;6.95;;;1.65;;
22318;SDS011;11327;52.334;9.506;2023-12-28T15:41:12;5.00;;;1.10;;
22318;SDS011;11327;52.334;9.506;2023-12-28T15:44:33;9.38;;;1.85;;
22318;SDS011;11327;52.334;9.506;2023-12-28T15:47:53;5.58;;;1.52;;
22318;SDS011;11327;52.334;9.506;2023-12-28T15:51:14;5.87;;;1.60;;
22318;SDS011;11327;52.334;9.506;2023-12-28T15:54:35;5.85;;;1.50;;
22318;SDS011;11327;52.334;9.506;2023-12-28T15:57:56;4.92;;;1.32;;
22318;SDS011;11327;52.334;9.506;2023-12-28T16:01:16;6.20;;;1.60;;
22318;SDS011;11327;52.334;9.506;2023-12-28T16:04:38;4.70;;;1.50;;
22318;SDS011;11327;52.334;9.506;2023-12-28T16:07:59;7.45;;;1.62;;
22318;SDS011;11327;52.334;9.506;2023-12-28T16:11:20;3.77;;;1.60;;
22318;SDS011;11327;52.334;9.506;2023-12-28T16:14:41;6.25;;;1.60;;
22318;SDS011;11327;52.334;9.506;2023-12-28T16:18:02;10.40;;;1.50;;
22318;SDS011;11327;52.334;9.506;2023-12-28T16:21:23;8.15;;;1.77;;
22318;SDS011;11327;52.334;9.506;2023-12-28T16:24:44;4.22;;;1.50;;
22318;SDS011;11327;52.334;9.506;2023-12-28T16:28:05;3.95;;;1.47;;
22318;SDS011;11327;52.334;9.506;2023-12-28T16:31:26;7.87;;;2.87;;
22318;SDS011;11327;52.334;9.506;2023-12-28T16:34:47;7.28;;;2.20;;
22318;SDS011;11327;52.334;9.506;2023-12-28T16:38:07;5.35;;;1.45;;
22318;SDS011;11327;52.334;9.506;2023-12-28T16:41:28;4.30;;;1.55;;
22318;SDS011;11327;52.334;9.506;2023-12-28T16:44:49;7.95;;;1.80;;
22318;SDS011;11327;52.334;9.506;2023-12-28T16:48:10;4.62;;;1.40;;
22318;SDS011;11327;52.334;9.506;2023-12-28T16:51:31;4.90;;;1.35;;
22318;SDS011;11327;52.334;9.506;2023-12-28T16:54:51;5.87;;;1.60;;
22318;SDS011;11327;52.334;9.506;2023-12-28T16:58:12;4.70;;;1.77;;
22318;SDS011;11327;52.334;9.506;2023-12-28T17:01:33;6.62;;;1.50;;
22318;SDS011;11327;52.334;9.506;2023-12-28T17:04:54;7.67;;;1.55;;
22318;SDS011;11327;52.334;9.506;2023-12-28T17:08:15;4.50;;;1.20;;
22318;SDS011;11327;52.334;9.506;2023-12-28T17:11:36;3.77;;;1.32;;
22318;SDS011;11327;52.334;9.506;2023-12-28T17:14:57;5.42;;;1.40;;
22318;SDS011;11327;52.334;9.506;2023-12-28T17:18:18;4.80;;;1.30;;
22318;SDS011;11327;52.334;9.506;2023-12-28T17:21:39;5.70;;;1.17;;
22318;SDS011;11327;52.334;9.506;2023-12-28T17:25:11;8.88;;;1.65;;
22318;SDS011;11327;52.334;9.506;2023-12-28T17:28:34;5.92;;;1.50;;
22318;SDS011;11327;52.334;9.506;2023-12-28T17:31:57;4.53;;;1.35;;
22318;SDS011;11327;52.334;9.506;2023-12-28T17:35:22;5.83;;;1.40;;
22318;SDS011;11327;52.334;9.506;2023-12-28T17:38:43;4.22;;;1.30;;
22318;SDS011;11327;52.334;9.506;2023-12-28T17:42:05;4.15;;;1.10;;
22318;SDS011;11327;52.334;9.506;2023-12-28T17:49:11;6.08;;;1.60;;
22318;SDS011;11327;52.334;9.506;2023-12-28T17:52:36;5.67;;;1.50;;
22318;SDS011;11327;52.334;9.506;2023-12-28T17:55:57;7.97;;;1.55;;
22318;SDS011;11327;52.334;9.506;2023-12-28T17:59:17;8.98;;;2.15;;
22318;SDS011;11327;52.334;9.506;2023-12-28T18:02:38;6.25;;;1.77;;
22318;SDS011;11327;52.334;9.506;2023-12-28T18:05:59;5.42;;;1.27;;
22318;SDS011;11327;52.334;9.506;2023-12-28T18:09:19;8.20;;;1.57;;
22318;SDS011;11327;52.334;9.506;2023-12-28T18:12:43;4.17;;;1.42;;
22318;SDS011;11327;52.334;9.506;2023-12-28T18:16:04;6.40;;;1.30;;
22318;SDS011;11327;52.334;9.506;2023-12-28T18:19:25;4.75;;;1.12;;
22318;SDS011;11327;52.334;9.506;2023-12-28T18:22:45;3.92;;;1.10;;
22318;SDS011;11327;52.334;9.506;2023-12-28T18:26:06;6.62;;;1.20;;
22318;SDS011;11327;52.334;9.506;2023-12-28T18:29:27;4.65;;;1.32;;
22318;SDS011;11327;52.334;9.506;2023-12-28T18:32:48;5.45;;;1.37;;
22318;SDS011;11327;52.334;9.506;2023-12-28T18:36:09;7.58;;;1.87;;
22318;SDS011;11327;52.334;9.506;2023-12-28T18:39:29;4.92;;;1.40;;
22318;SDS011;11327;52.334;9.506;2023-12-28T18:42:50;5.45;;;1.50;;
22318;SDS011;11327;52.334;9.506;2023-12-28T18:46:11;5.47;;;1.35;;
22318;SDS011;11327;52.334;9.506;2023-12-28T18:49:32;3.85;;;1.30;;
22318;SDS011;11327;52.334;9.506;2023-12-28T18:52:53;5.90;;;1.70;;
22318;SDS011;11327;52.334;9.506;2023-12-28T18:56:14;6.30;;;1.30;;
22318;SDS011;11327;52.334;9.506;2023-12-28T18:59:35;6.80;;;1.42;;
22318;SDS011;11327;52.334;9.506;2023-12-28T19:02:55;5.62;;;1.87;;
22318;SDS011;11327;52.334;9.506;2023-12-28T19:06:16;6.58;;;1.80;;
22318;SDS011;11327;52.334;9.506;2023-12-28T19:09:37;6.40;;;1.67;;
22318;SDS011;11327;52.334;9.506;2023-12-28T19:12:58;4.58;;;1.35;;
22318;SDS011;11327;52.334;9.506;2023-12-28T19:16:18;4.50;;;1.45;;
22318;SDS011;11327;52.334;9.506;2023-12-28T19:19:40;4.62;;;1.42;;
22318;SDS011;11327;52.334;9.506;2023-12-28T19:23:01;5.85;;;1.15;;
22318;SDS011;11327;52.334;9.506;2023-12-28T19:26:22;5.95;;;1.57;;
22318;SDS011;11327;52.334;9.506;2023-12-28T19:29:42;5.20;;;1.30;;
22318;SDS011;11327;52.334;9.506;2023-12-28T19:33:03;6.60;;;1.62;;
22318;SDS011;11327;52.334;9.506;2023-12-28T19:36:24;5.55;;;1.50;;
22318;SDS011;11327;52.334;9.506;2023-12-28T19:39:45;4.80;;;1.55;;
22318;SDS011;11327;52.334;9.506;2023-12-28T19:43:07;4.97;;;1.60;;
22318;SDS011;11327;52.334;9.506;2023-12-28T19:46:28;5.80;;;1.62;;
22318;SDS011;11327;52.334;9.506;2023-12-28T19:49:49;4.80;;;1.32;;
22318;SDS011;11327;52.334;9.506;2023-12-28T19:53:10;3.77;;;1.30;;
22318;SDS011;11327;52.334;9.506;2023-12-28T19:56:36;5.30;;;1.17;;
22318;SDS011;11327;52.334;9.506;2023-12-28T19:59:57;5.90;;;1.50;;
22318;SDS011;11327;52.334;9.506;2023-12-28T20:03:17;5.40;;;1.55;;
22318;SDS011;11327;52.334;9.506;2023-12-28T20:06:42;4.67;;;1.45;;
22318;SDS011;11327;52.334;9.506;2023-12-28T20:10:04;2.87;;;1.05;;
22318;SDS011;11327;52.334;9.506;2023-12-28T20:13:25;5.62;;;1.50;;
22318;SDS011;11327;52.334;9.506;2023-12-28T20:16:46;6.30;;;1.50;;
22318;SDS011;11327;52.334;9.506;2023-12-28T20:20:08;3.87;;;1.52;;